createdAt,value
2018-01-19T00:00:29.726Z,0.00
2018-01-19T00:01:29.741Z,0.00
2018-01-19T00:02:29.753Z,0.00
2018-01-19T00:03:29.770Z,0.00
2018-01-19T00:04:29.783Z,0.00
2018-01-19T00:05:29.796Z,0.00
2018-01-19T00:06:29.810Z,0.00
2018-01-19T00:07:29.823Z,0.00
2018-01-19T00:08:29.834Z,0.00
2018-01-19T00:09:29.850Z,0.00
2018-01-19T00:10:29.866Z,0.00
2018-01-19T00:11:29.873Z,0.00
2018-01-19T00:12:29.886Z,0.00
2018-01-19T00:13:29.900Z,0.00
2018-01-19T00:14:29.916Z,0.00
2018-01-19T00:15:29.929Z,0.00
2018-01-19T00:16:29.938Z,0.00
2018-01-19T00:17:29.950Z,0.00
2018-01-19T00:18:29.967Z,0.00
2018-01-19T00:19:29.984Z,0.00
2018-01-19T00:20:29.992Z,0.00
2018-01-19T00:21:30.007Z,0.00
2018-01-19T00:22:30.030Z,0.00
2018-01-19T00:23:30.028Z,0.00
2018-01-19T00:24:30.044Z,0.00
2018-01-19T00:25:30.056Z,0.00
2018-01-19T00:26:30.084Z,0.00
2018-01-19T00:27:30.099Z,0.00
2018-01-19T00:28:30.099Z,0.00
2018-01-19T00:29:30.109Z,0.00
2018-01-19T00:30:30.125Z,0.00
2018-01-19T00:31:30.138Z,0.00
2018-01-19T00:32:30.145Z,0.00
2018-01-19T00:33:30.168Z,0.00
2018-01-19T00:34:30.174Z,0.00
2018-01-19T00:35:30.188Z,0.00
2018-01-19T00:36:30.198Z,0.00
2018-01-19T00:37:30.213Z,0.00
2018-01-19T00:38:30.225Z,0.00
2018-01-19T00:39:30.241Z,0.00
2018-01-19T00:40:30.251Z,0.00
2018-01-19T00:41:30.265Z,0.00
2018-01-19T00:42:30.277Z,0.00
2018-01-19T00:43:30.289Z,0.00
2018-01-19T00:44:30.302Z,0.00
2018-01-19T00:45:30.314Z,0.00
2018-01-19T00:46:30.327Z,0.00
2018-01-19T00:47:30.341Z,0.00
2018-01-19T00:48:30.359Z,0.00
2018-01-19T00:49:30.372Z,0.00
2018-01-19T00:50:30.381Z,0.00
2018-01-19T00:51:30.394Z,0.00
2018-01-19T00:52:30.415Z,0.00
2018-01-19T00:53:30.419Z,0.00
2018-01-19T00:54:30.443Z,0.00
2018-01-19T00:55:30.443Z,0.00
2018-01-19T00:56:30.465Z,0.00
2018-01-19T00:57:30.472Z,0.00
2018-01-19T00:58:30.482Z,0.00
2018-01-19T00:59:30.619Z,0.00
2018-01-19T01:00:30.516Z,0.00
2018-01-19T01:01:30.522Z,0.00
2018-01-19T01:02:30.535Z,0.00
2018-01-19T01:03:30.552Z,0.00
2018-01-19T01:04:30.563Z,0.00
2018-01-19T01:05:30.574Z,0.00
2018-01-19T01:06:30.585Z,0.00
2018-01-19T01:07:30.600Z,0.00
2018-01-19T01:08:30.612Z,0.00
2018-01-19T01:09:30.649Z,0.00
2018-01-19T01:10:30.639Z,0.00
2018-01-19T01:11:30.652Z,0.00
2018-01-19T01:12:30.666Z,0.00
2018-01-19T01:13:30.676Z,0.00
2018-01-19T01:14:30.690Z,0.00
2018-01-19T01:15:30.709Z,0.00
2018-01-19T01:16:30.715Z,0.00
2018-01-19T01:17:30.732Z,0.00
2018-01-19T01:18:30.739Z,0.00
2018-01-19T01:19:30.753Z,0.00
2018-01-19T01:20:30.769Z,0.00
2018-01-19T01:21:30.781Z,0.00
2018-01-19T01:22:30.794Z,0.00
2018-01-19T01:23:30.803Z,0.00
2018-01-19T01:24:30.820Z,0.00
2018-01-19T01:25:30.835Z,0.00
2018-01-19T01:26:30.850Z,0.00
2018-01-19T01:27:30.862Z,0.00
2018-01-19T01:28:30.867Z,0.00
2018-01-19T01:29:30.882Z,0.00
2018-01-19T01:30:30.896Z,0.00
2018-01-19T01:31:30.908Z,0.00
2018-01-19T01:32:30.916Z,0.00
2018-01-19T01:33:30.932Z,0.00
2018-01-19T01:34:30.945Z,0.00
2018-01-19T01:35:30.958Z,0.00
2018-01-19T01:36:30.967Z,0.00
2018-01-19T01:37:30.986Z,0.00
2018-01-19T01:38:31.002Z,0.00
2018-01-19T01:39:31.006Z,0.00
2018-01-19T01:40:31.031Z,0.00
2018-01-19T01:41:31.035Z,0.00
2018-01-19T01:42:31.045Z,0.00
2018-01-19T01:43:31.061Z,0.00
2018-01-19T01:44:31.072Z,0.00
2018-01-19T01:45:31.083Z,0.00
2018-01-19T01:46:31.093Z,0.00
2018-01-19T01:47:31.107Z,0.00
2018-01-19T01:48:31.118Z,0.00
2018-01-19T01:49:31.131Z,0.00
2018-01-19T01:50:31.144Z,0.00
2018-01-19T01:51:31.158Z,0.00
2018-01-19T01:52:31.170Z,0.00
2018-01-19T01:53:31.181Z,0.00
2018-01-19T01:54:31.196Z,0.00
2018-01-19T01:55:31.207Z,0.00
2018-01-19T01:56:31.223Z,0.00
2018-01-19T01:57:31.232Z,0.00
2018-01-19T01:58:31.249Z,0.00
2018-01-19T01:59:31.255Z,0.00
2018-01-19T02:00:31.270Z,0.00
2018-01-19T02:01:31.278Z,0.00
2018-01-19T02:02:31.301Z,0.00
2018-01-19T02:03:31.305Z,0.00
2018-01-19T02:04:31.333Z,0.00
2018-01-19T02:05:31.329Z,0.00
2018-01-19T02:06:31.340Z,0.00
2018-01-19T02:07:31.360Z,0.00
2018-01-19T02:08:31.365Z,0.00
2018-01-19T02:09:31.380Z,0.00
2018-01-19T02:10:31.390Z,0.00
2018-01-19T02:11:31.402Z,0.00
2018-01-19T02:12:31.418Z,0.00
2018-01-19T02:13:31.426Z,0.00
2018-01-19T02:14:31.443Z,0.00
2018-01-19T02:15:31.460Z,0.00
2018-01-19T02:16:31.469Z,0.00
2018-01-19T02:17:31.478Z,0.00
2018-01-19T02:18:31.490Z,0.00
2018-01-19T02:19:31.503Z,0.00
2018-01-19T02:20:31.515Z,0.00
2018-01-19T02:21:31.526Z,0.00
2018-01-19T02:22:31.539Z,0.00
2018-01-19T02:23:31.550Z,0.00
2018-01-19T02:24:31.568Z,0.00
2018-01-19T02:25:31.578Z,0.00
2018-01-19T02:26:31.585Z,0.00
2018-01-19T02:27:31.598Z,0.00
2018-01-19T02:28:31.615Z,0.00
2018-01-19T02:29:31.622Z,0.00
2018-01-19T02:30:31.645Z,0.00
2018-01-19T02:31:31.647Z,0.00
2018-01-19T02:32:31.663Z,0.00
2018-01-19T02:33:31.678Z,0.00
2018-01-19T02:34:31.687Z,0.00
2018-01-19T02:35:31.695Z,0.00
2018-01-19T02:36:31.712Z,0.00
2018-01-19T02:37:31.738Z,0.00
2018-01-19T02:38:31.733Z,0.00
2018-01-19T02:39:31.747Z,0.00
2018-01-19T02:40:31.763Z,0.00
2018-01-19T02:41:31.773Z,0.00
2018-01-19T02:42:31.784Z,0.00
2018-01-19T02:43:31.793Z,0.00
2018-01-19T02:44:31.807Z,0.00
2018-01-19T02:45:31.823Z,0.00
2018-01-19T02:46:31.833Z,0.00
2018-01-19T02:47:31.845Z,0.00
2018-01-19T02:48:31.856Z,0.00
2018-01-19T02:49:31.870Z,0.00
2018-01-19T02:50:31.880Z,0.00
2018-01-19T02:51:31.894Z,0.00
2018-01-19T02:52:31.908Z,0.00
2018-01-19T02:53:31.918Z,0.00
2018-01-19T02:54:31.930Z,0.00
2018-01-19T02:55:31.945Z,0.00
2018-01-19T02:56:31.968Z,0.00
2018-01-19T02:57:31.970Z,0.00
2018-01-19T02:58:31.981Z,0.00
2018-01-19T02:59:31.992Z,0.00
2018-01-19T03:00:32.020Z,0.00
2018-01-19T03:01:32.019Z,0.00
2018-01-19T03:02:32.029Z,0.00
2018-01-19T03:03:32.041Z,0.00
2018-01-19T03:04:32.056Z,0.00
2018-01-19T03:05:32.071Z,0.00
2018-01-19T03:06:32.079Z,0.00
2018-01-19T03:07:32.093Z,0.00
2018-01-19T03:08:32.110Z,0.00
2018-01-19T03:09:32.121Z,0.00
2018-01-19T03:10:32.131Z,0.00
2018-01-19T03:11:32.146Z,0.00
2018-01-19T03:12:32.156Z,0.00
2018-01-19T03:13:32.169Z,0.00
2018-01-19T03:14:32.180Z,0.00
2018-01-19T03:15:32.190Z,0.00
2018-01-19T03:16:32.205Z,0.00
2018-01-19T03:17:32.231Z,0.00
2018-01-19T03:18:32.230Z,0.00
2018-01-19T03:19:32.246Z,0.00
2018-01-19T03:20:32.254Z,0.00
2018-01-19T03:21:32.267Z,0.00
2018-01-19T03:22:32.284Z,0.00
2018-01-19T03:23:32.294Z,0.00
2018-01-19T03:24:32.306Z,0.00
2018-01-19T03:25:32.317Z,0.00
2018-01-19T03:26:32.330Z,0.00
2018-01-19T03:27:32.340Z,0.00
2018-01-19T03:28:32.355Z,0.00
2018-01-19T03:29:32.365Z,0.00
2018-01-19T03:30:32.390Z,0.00
2018-01-19T03:31:32.400Z,0.00
2018-01-19T03:32:32.403Z,0.00
2018-01-19T03:33:32.420Z,0.00
2018-01-19T03:34:32.429Z,0.00
2018-01-19T03:35:32.442Z,0.00
2018-01-19T03:36:32.454Z,0.00
2018-01-19T03:37:32.465Z,0.00
2018-01-19T03:38:32.484Z,0.00
2018-01-19T03:39:32.497Z,0.00
2018-01-19T03:40:32.503Z,0.00
2018-01-19T03:41:32.517Z,0.00
2018-01-19T03:42:32.530Z,0.00
2018-01-19T03:43:32.538Z,0.00
2018-01-19T03:44:32.551Z,0.00
2018-01-19T03:45:32.567Z,0.00
2018-01-19T03:46:32.575Z,0.00
2018-01-19T03:47:32.592Z,0.00
2018-01-19T03:48:32.601Z,0.00
2018-01-19T03:49:32.614Z,0.00
2018-01-19T03:50:32.625Z,0.00
2018-01-19T03:51:32.633Z,0.00
2018-01-19T03:52:32.647Z,0.00
2018-01-19T03:53:32.663Z,0.00
2018-01-19T03:54:32.673Z,0.00
2018-01-19T03:55:32.687Z,0.00
2018-01-19T03:56:32.697Z,0.00
2018-01-19T03:57:32.720Z,0.00
2018-01-19T03:58:32.841Z,0.00
2018-01-19T03:59:32.732Z,0.00
2018-01-19T04:00:32.749Z,0.00
2018-01-19T04:01:32.768Z,0.00
2018-01-19T04:02:32.771Z,0.00
2018-01-19T04:03:32.782Z,0.00
2018-01-19T04:04:32.794Z,0.00
2018-01-19T04:05:32.807Z,0.00
2018-01-19T04:06:32.816Z,0.00
2018-01-19T04:07:32.835Z,0.00
2018-01-19T04:08:32.843Z,0.00
2018-01-19T04:09:32.857Z,0.00
2018-01-19T04:10:32.867Z,0.00
2018-01-19T04:11:32.887Z,0.00
2018-01-19T04:12:32.892Z,0.00
2018-01-19T04:13:32.907Z,0.00
2018-01-19T04:14:32.918Z,0.00
2018-01-19T04:15:32.932Z,0.00
2018-01-19T04:16:32.943Z,0.00
2018-01-19T04:17:32.957Z,0.00
2018-01-19T04:18:32.971Z,0.00
2018-01-19T04:19:32.979Z,0.00
2018-01-19T04:20:32.994Z,0.00
2018-01-19T04:21:33.007Z,0.00
2018-01-19T04:22:33.016Z,0.00
2018-01-19T04:23:33.032Z,0.00
2018-01-19T04:24:33.042Z,0.00
2018-01-19T04:25:33.052Z,0.00
2018-01-19T04:26:33.067Z,0.00
2018-01-19T04:27:33.079Z,0.00
2018-01-19T04:28:33.093Z,0.00
2018-01-19T04:29:33.104Z,0.00
2018-01-19T04:30:33.115Z,0.00
2018-01-19T04:31:33.132Z,0.00
2018-01-19T04:32:33.145Z,0.00
2018-01-19T04:33:33.156Z,0.00
2018-01-19T04:34:33.168Z,0.00
2018-01-19T04:35:33.180Z,0.00
2018-01-19T04:36:33.192Z,0.00
2018-01-19T04:37:33.210Z,0.00
2018-01-19T04:38:33.220Z,0.00
2018-01-19T04:39:33.230Z,0.00
2018-01-19T04:40:33.244Z,0.00
2018-01-19T04:41:33.256Z,0.00
2018-01-19T04:42:33.267Z,0.00
2018-01-19T04:43:33.279Z,0.00
2018-01-19T04:44:33.295Z,0.00
2018-01-19T04:45:33.305Z,0.00
2018-01-19T04:46:33.320Z,0.00
2018-01-19T04:47:33.330Z,0.00
2018-01-19T04:48:33.348Z,0.00
2018-01-19T04:49:33.367Z,0.00
2018-01-19T04:50:33.370Z,0.00
2018-01-19T04:51:33.383Z,0.00
2018-01-19T04:52:33.395Z,0.00
2018-01-19T04:53:33.411Z,0.00
2018-01-19T04:54:33.424Z,0.00
2018-01-19T04:55:33.433Z,0.00
2018-01-19T04:56:33.450Z,0.00
2018-01-19T04:57:33.458Z,0.00
2018-01-19T04:58:33.474Z,0.00
2018-01-19T04:59:33.480Z,0.00
2018-01-19T05:00:33.497Z,0.00
2018-01-19T05:01:33.513Z,0.00
2018-01-19T05:02:33.520Z,0.00
2018-01-19T05:03:33.536Z,0.00
2018-01-19T05:04:33.552Z,0.00
2018-01-19T05:05:33.563Z,0.00
2018-01-19T05:06:33.576Z,0.00
2018-01-19T05:07:33.582Z,0.00
2018-01-19T05:08:33.596Z,0.00
2018-01-19T05:09:33.610Z,0.00
2018-01-19T05:10:33.626Z,0.00
2018-01-19T05:11:33.637Z,0.00
2018-01-19T05:12:33.648Z,0.00
2018-01-19T05:13:33.661Z,0.00
2018-01-19T05:14:33.670Z,0.00
2018-01-19T05:15:33.692Z,0.00
2018-01-19T05:16:33.819Z,0.00
2018-01-19T05:17:33.715Z,0.00
2018-01-19T05:18:33.724Z,0.00
2018-01-19T05:19:33.740Z,0.00
2018-01-19T05:20:33.753Z,0.00
2018-01-19T05:21:33.760Z,0.00
2018-01-19T05:22:33.771Z,0.00
2018-01-19T05:23:33.786Z,0.00
2018-01-19T05:24:33.798Z,0.00
2018-01-19T05:25:33.811Z,0.00
2018-01-19T05:26:33.821Z,0.00
2018-01-19T05:27:33.843Z,0.00
2018-01-19T05:28:33.847Z,0.00
2018-01-19T05:29:33.857Z,0.00
2018-01-19T05:30:33.874Z,0.00
2018-01-19T05:31:33.885Z,0.00
2018-01-19T05:32:33.899Z,0.00
2018-01-19T05:33:33.911Z,0.00
2018-01-19T05:34:33.920Z,0.00
2018-01-19T05:35:33.935Z,0.00
2018-01-19T05:36:33.950Z,0.00
2018-01-19T05:37:33.965Z,0.00
2018-01-19T05:38:33.973Z,0.00
2018-01-19T05:39:33.989Z,0.00
2018-01-19T05:40:33.998Z,0.00
2018-01-19T05:41:34.012Z,0.00
2018-01-19T05:42:34.021Z,0.00
2018-01-19T05:43:34.051Z,0.00
2018-01-19T05:44:34.047Z,0.00
2018-01-19T05:45:34.061Z,0.00
2018-01-19T05:46:34.071Z,0.00
2018-01-19T05:47:34.087Z,0.00
2018-01-19T05:48:34.101Z,0.00
2018-01-19T05:49:34.108Z,0.00
2018-01-19T05:50:34.160Z,0.00
2018-01-19T05:51:34.135Z,0.00
2018-01-19T05:52:34.149Z,0.00
2018-01-19T05:53:34.164Z,0.00
2018-01-19T05:54:34.173Z,0.00
2018-01-19T05:55:34.189Z,0.00
2018-01-19T05:56:34.201Z,0.00
2018-01-19T05:57:34.212Z,0.00
2018-01-19T05:58:34.229Z,0.00
2018-01-19T05:59:34.237Z,0.00
2018-01-19T06:00:34.253Z,0.00
2018-01-19T06:01:34.264Z,0.00
2018-01-19T06:02:34.272Z,0.00
2018-01-19T06:03:34.287Z,0.00
2018-01-19T06:04:34.300Z,0.00
2018-01-19T06:05:34.312Z,0.00
2018-01-19T06:06:34.323Z,0.00
2018-01-19T06:07:34.356Z,0.00
2018-01-19T06:08:34.364Z,0.00
2018-01-19T06:09:34.366Z,0.00
2018-01-19T06:10:34.375Z,0.00
2018-01-19T06:11:34.388Z,0.00
2018-01-19T06:12:34.400Z,0.00
2018-01-19T06:13:34.412Z,0.00
2018-01-19T06:14:34.432Z,0.00
2018-01-19T06:15:34.440Z,0.00
2018-01-19T06:16:34.448Z,0.00
2018-01-19T06:17:34.465Z,0.00
2018-01-19T06:18:34.475Z,0.00
2018-01-19T06:19:34.489Z,0.00
2018-01-19T06:20:34.500Z,0.00
2018-01-19T06:21:34.524Z,0.00
2018-01-19T06:22:34.525Z,0.00
2018-01-19T06:23:34.534Z,0.00
2018-01-19T06:24:34.559Z,0.00
2018-01-19T06:25:34.560Z,0.00
2018-01-19T06:26:34.575Z,0.00
2018-01-19T06:27:34.593Z,0.00
2018-01-19T06:28:34.600Z,0.00
2018-01-19T06:29:34.751Z,0.00
2018-01-19T06:30:34.624Z,0.00
2018-01-19T06:31:34.646Z,0.00
2018-01-19T06:32:34.649Z,0.00
2018-01-19T06:33:34.669Z,0.00
2018-01-19T06:34:34.676Z,0.00
2018-01-19T06:35:34.688Z,0.00
2018-01-19T06:36:34.703Z,0.00
2018-01-19T06:37:34.716Z,0.00
2018-01-19T06:38:34.731Z,0.00
2018-01-19T06:39:34.737Z,0.00
2018-01-19T06:40:34.748Z,0.00
2018-01-19T06:41:34.821Z,0.00
2018-01-19T06:42:34.777Z,0.00
2018-01-19T06:43:34.790Z,0.00
2018-01-19T06:44:34.804Z,0.00
2018-01-19T06:45:34.819Z,0.00
2018-01-19T06:46:34.835Z,0.00
2018-01-19T06:47:34.842Z,0.00
2018-01-19T06:48:34.856Z,0.00
2018-01-19T06:49:34.869Z,0.00
2018-01-19T06:50:34.882Z,0.00
2018-01-19T06:51:34.893Z,0.00
2018-01-19T06:52:34.909Z,0.00
2018-01-19T06:53:34.916Z,0.00
2018-01-19T06:54:34.929Z,0.00
2018-01-19T06:55:34.943Z,0.00
2018-01-19T06:56:34.960Z,0.00
2018-01-19T06:57:34.971Z,0.00
2018-01-19T06:58:34.983Z,0.00
2018-01-19T06:59:34.992Z,0.00
2018-01-19T07:00:35.003Z,0.00
2018-01-19T07:01:35.022Z,0.00
2018-01-19T07:02:35.030Z,0.00
2018-01-19T07:03:35.044Z,0.00
2018-01-19T07:04:35.055Z,0.00
2018-01-19T07:05:35.079Z,0.00
2018-01-19T07:06:35.079Z,0.00
2018-01-19T07:07:35.093Z,0.00
2018-01-19T07:08:35.105Z,0.00
2018-01-19T07:09:35.140Z,0.00
2018-01-19T07:10:35.130Z,0.00
2018-01-19T07:11:35.141Z,0.00
2018-01-19T07:12:35.157Z,0.00
2018-01-19T07:13:35.171Z,0.00
2018-01-19T07:14:35.189Z,0.00
2018-01-19T07:15:35.195Z,0.00
2018-01-19T07:16:35.212Z,0.00
2018-01-19T07:17:35.220Z,0.00
2018-01-19T07:18:35.229Z,0.00
2018-01-19T07:19:35.243Z,0.00
2018-01-19T07:20:35.255Z,0.00
2018-01-19T07:21:35.272Z,0.00
2018-01-19T07:22:35.279Z,0.00
2018-01-19T07:23:35.302Z,0.00
2018-01-19T07:24:35.310Z,0.00
2018-01-19T07:25:35.321Z,0.00
2018-01-19T07:26:35.338Z,0.00
2018-01-19T07:27:35.349Z,0.00
2018-01-19T07:28:35.368Z,0.00
2018-01-19T07:29:35.371Z,5.63
2018-01-19T07:30:35.396Z,5.63
2018-01-19T07:31:35.403Z,5.63
2018-01-19T07:32:35.412Z,5.63
2018-01-19T07:33:35.423Z,5.63
2018-01-19T07:34:35.439Z,5.63
2018-01-19T07:35:35.445Z,5.63
2018-01-19T07:36:35.460Z,5.63
2018-01-19T07:37:35.472Z,5.63
2018-01-19T07:38:35.484Z,5.63
2018-01-19T07:39:35.499Z,5.63
2018-01-19T07:40:35.511Z,5.63
2018-01-19T07:41:35.526Z,5.63
2018-01-19T07:42:35.533Z,5.63
2018-01-19T07:43:35.563Z,5.63
2018-01-19T07:44:35.562Z,5.63
2018-01-19T07:45:35.577Z,5.63
2018-01-19T07:46:35.585Z,5.63
2018-01-19T07:47:35.612Z,5.63
2018-01-19T07:48:35.625Z,5.63
2018-01-19T07:49:35.623Z,5.63
2018-01-19T07:50:35.643Z,11.25
2018-01-19T07:51:35.652Z,11.25
2018-01-19T07:52:35.669Z,11.25
2018-01-19T07:53:35.686Z,11.25
2018-01-19T07:54:35.691Z,11.25
2018-01-19T07:55:35.705Z,11.25
2018-01-19T07:56:35.722Z,11.25
2018-01-19T07:57:35.730Z,11.25
2018-01-19T07:58:35.746Z,11.25
2018-01-19T07:59:35.755Z,11.25
2018-01-19T08:00:35.769Z,11.25
2018-01-19T08:01:35.785Z,11.25
2018-01-19T08:02:35.793Z,11.25
2018-01-19T08:03:35.805Z,11.25
2018-01-19T08:04:35.820Z,11.25
2018-01-19T08:05:35.833Z,11.25
2018-01-19T08:06:35.845Z,11.25
2018-01-19T08:07:35.860Z,11.25
2018-01-19T08:08:35.871Z,11.25
2018-01-19T08:09:35.884Z,11.25
2018-01-19T08:10:35.896Z,11.25
2018-01-19T08:11:35.916Z,11.25
2018-01-19T08:12:35.924Z,11.25
2018-01-19T08:13:35.936Z,11.25
2018-01-19T08:14:35.953Z,11.25
2018-01-19T08:15:35.960Z,5.63
2018-01-19T08:16:35.974Z,11.25
2018-01-19T08:17:35.988Z,11.25
2018-01-19T08:18:36.000Z,11.25
2018-01-19T08:19:36.012Z,16.88
2018-01-19T08:20:36.026Z,16.88
2018-01-19T08:21:36.040Z,16.88
2018-01-19T08:22:36.050Z,16.88
2018-01-19T08:23:36.065Z,11.25
2018-01-19T08:24:36.093Z,11.25
2018-01-19T08:25:36.099Z,11.25
2018-01-19T08:26:36.106Z,11.25
2018-01-19T08:27:36.116Z,11.25
2018-01-19T08:28:36.131Z,11.25
2018-01-19T08:29:36.146Z,16.88
2018-01-19T08:30:36.157Z,16.88
2018-01-19T08:31:36.168Z,16.88
2018-01-19T08:32:36.182Z,16.88
2018-01-19T08:33:36.195Z,16.88
2018-01-19T08:34:36.207Z,16.88
2018-01-19T08:35:36.220Z,22.50
2018-01-19T08:36:36.243Z,28.13
2018-01-19T08:37:36.247Z,33.75
2018-01-19T08:38:36.264Z,33.75
2018-01-19T08:39:36.271Z,39.38
2018-01-19T08:40:36.290Z,45.00
2018-01-19T08:41:36.299Z,50.63
2018-01-19T08:42:36.317Z,50.63
2018-01-19T08:43:36.335Z,56.25
2018-01-19T08:44:36.337Z,56.25
2018-01-19T08:45:36.349Z,56.25
2018-01-19T08:46:36.368Z,56.25
2018-01-19T08:47:36.376Z,61.88
2018-01-19T08:48:36.391Z,61.88
2018-01-19T08:49:36.402Z,56.25
2018-01-19T08:50:36.414Z,61.88
2018-01-19T08:51:36.426Z,61.88
2018-01-19T08:52:36.442Z,67.50
2018-01-19T08:53:36.457Z,67.50
2018-01-19T08:54:36.468Z,61.88
2018-01-19T08:55:36.491Z,61.88
2018-01-19T08:56:36.496Z,67.50
2018-01-19T08:57:36.506Z,61.88
2018-01-19T08:58:36.520Z,56.25
2018-01-19T08:59:36.536Z,50.63
2018-01-19T09:00:36.547Z,45.00
2018-01-19T09:01:36.569Z,39.38
2018-01-19T09:02:36.571Z,45.00
2018-01-19T09:03:36.585Z,50.63
2018-01-19T09:04:36.600Z,50.63
2018-01-19T09:05:36.620Z,50.63
2018-01-19T09:06:36.623Z,45.00
2018-01-19T09:07:36.645Z,39.38
2018-01-19T09:08:36.656Z,39.38
2018-01-19T09:09:36.662Z,39.38
2018-01-19T09:10:36.676Z,39.38
2018-01-19T09:11:36.741Z,39.38
2018-01-19T09:12:36.702Z,39.38
2018-01-19T09:13:36.721Z,45.00
2018-01-19T09:14:36.728Z,50.63
2018-01-19T09:15:36.741Z,50.63
2018-01-19T09:16:36.754Z,50.63
2018-01-19T09:17:36.779Z,50.63
2018-01-19T09:18:36.781Z,50.63
2018-01-19T09:19:36.792Z,50.63
2018-01-19T09:20:36.817Z,50.63
2018-01-19T09:21:36.822Z,56.25
2018-01-19T09:22:36.829Z,61.88
2018-01-19T09:23:36.844Z,61.88
2018-01-19T09:24:36.859Z,67.50
2018-01-19T09:25:36.872Z,67.50
2018-01-19T09:26:36.883Z,67.50
2018-01-19T09:27:36.895Z,84.38
2018-01-19T09:28:36.909Z,95.63
2018-01-19T09:29:36.922Z,101.25
2018-01-19T09:30:36.934Z,112.50
2018-01-19T09:31:36.951Z,118.13
2018-01-19T09:32:36.962Z,118.13
2018-01-19T09:33:36.972Z,118.13
2018-01-19T09:34:36.991Z,106.88
2018-01-19T09:35:37.004Z,90.00
2018-01-19T09:36:37.015Z,84.38
2018-01-19T09:37:37.031Z,84.38
2018-01-19T09:38:37.053Z,84.38
2018-01-19T09:39:37.051Z,73.13
2018-01-19T09:40:37.067Z,67.50
2018-01-19T09:41:37.084Z,67.50
2018-01-19T09:42:37.096Z,73.13
2018-01-19T09:43:37.106Z,84.38
2018-01-19T09:44:37.121Z,95.63
2018-01-19T09:45:37.135Z,84.38
2018-01-19T09:46:37.159Z,84.38
2018-01-19T09:47:37.168Z,95.63
2018-01-19T09:48:37.176Z,95.63
2018-01-19T09:49:37.188Z,95.63
2018-01-19T09:50:37.202Z,95.63
2018-01-19T09:51:37.219Z,90.00
2018-01-19T09:52:37.230Z,90.00
2018-01-19T09:53:37.241Z,84.38
2018-01-19T09:54:37.254Z,78.75
2018-01-19T09:55:37.265Z,73.13
2018-01-19T09:56:37.280Z,73.13
2018-01-19T09:57:37.295Z,67.50
2018-01-19T09:58:37.308Z,67.50
2018-01-19T09:59:37.321Z,73.13
2018-01-19T10:00:37.336Z,67.50
2018-01-19T10:01:37.355Z,56.25
2018-01-19T10:02:37.389Z,56.25
2018-01-19T10:03:37.373Z,56.25
2018-01-19T10:04:37.395Z,61.88
2018-01-19T10:05:37.401Z,67.50
2018-01-19T10:06:37.410Z,61.88
2018-01-19T10:07:37.427Z,61.88
2018-01-19T10:08:37.441Z,67.50
2018-01-19T10:09:37.455Z,73.13
2018-01-19T10:10:37.468Z,73.13
2018-01-19T10:11:37.481Z,61.88
2018-01-19T10:12:37.492Z,50.63
2018-01-19T10:13:37.512Z,50.63
2018-01-19T10:14:37.519Z,50.63
2018-01-19T10:15:37.534Z,45.00
2018-01-19T10:16:37.546Z,45.00
2018-01-19T10:17:37.564Z,45.00
2018-01-19T10:18:37.573Z,45.00
2018-01-19T10:19:37.590Z,56.25
2018-01-19T10:20:37.599Z,61.88
2018-01-19T10:21:37.620Z,67.50
2018-01-19T10:22:37.625Z,73.13
2018-01-19T10:23:37.638Z,73.13
2018-01-19T10:24:37.661Z,67.50
2018-01-19T10:25:37.670Z,67.50
2018-01-19T10:26:37.681Z,73.13
2018-01-19T10:27:37.690Z,84.38
2018-01-19T10:28:37.712Z,90.00
2018-01-19T10:29:37.721Z,90.00
2018-01-19T10:30:37.734Z,90.00
2018-01-19T10:31:37.752Z,90.00
2018-01-19T10:32:37.760Z,78.75
2018-01-19T10:33:37.775Z,73.13
2018-01-19T10:34:37.788Z,73.13
2018-01-19T10:35:37.804Z,73.13
2018-01-19T10:36:37.813Z,84.38
2018-01-19T10:37:37.829Z,90.00
2018-01-19T10:38:37.838Z,90.00
2018-01-19T10:39:37.851Z,95.63
2018-01-19T10:40:37.865Z,101.25
2018-01-19T10:41:37.887Z,101.25
2018-01-19T10:42:37.893Z,95.63
2018-01-19T10:43:37.903Z,101.25
2018-01-19T10:44:37.921Z,106.88
2018-01-19T10:45:37.944Z,112.50
2018-01-19T10:46:37.946Z,123.75
2018-01-19T10:47:37.958Z,118.13
2018-01-19T10:48:37.972Z,118.13
2018-01-19T10:49:37.986Z,101.25
2018-01-19T10:50:38.012Z,95.63
2018-01-19T10:51:38.011Z,90.00
2018-01-19T10:52:38.030Z,84.38
2018-01-19T10:53:38.040Z,78.75
2018-01-19T10:54:38.065Z,78.75
2018-01-19T10:55:38.069Z,101.25
2018-01-19T10:56:38.088Z,101.25
2018-01-19T10:57:38.094Z,95.63
2018-01-19T10:58:38.105Z,101.25
2018-01-19T10:59:38.136Z,106.88
2018-01-19T11:00:38.132Z,112.50
2018-01-19T11:01:38.147Z,106.88
2018-01-19T11:02:38.158Z,112.50
2018-01-19T11:03:38.174Z,112.50
2018-01-19T11:04:38.196Z,106.88
2018-01-19T11:05:38.218Z,112.50
2018-01-19T11:06:38.214Z,106.88
2018-01-19T11:07:38.231Z,90.00
2018-01-19T11:08:38.241Z,84.38
2018-01-19T11:09:38.260Z,78.75
2018-01-19T11:10:38.305Z,84.38
2018-01-19T11:11:38.290Z,84.38
2018-01-19T11:12:38.296Z,95.63
2018-01-19T11:13:38.310Z,101.25
2018-01-19T11:14:38.325Z,84.38
2018-01-19T11:15:38.336Z,67.50
2018-01-19T11:16:38.354Z,61.88
2018-01-19T11:17:38.361Z,56.25
2018-01-19T11:18:38.375Z,50.63
2018-01-19T11:19:38.389Z,50.63
2018-01-19T11:20:38.404Z,45.00
2018-01-19T11:21:38.415Z,33.75
2018-01-19T11:22:38.428Z,28.13
2018-01-19T11:23:38.441Z,28.13
2018-01-19T11:24:38.458Z,28.13
2018-01-19T11:25:38.468Z,22.50
2018-01-19T11:26:38.484Z,22.50
2018-01-19T11:27:38.496Z,22.50
2018-01-19T11:28:38.515Z,28.13
2018-01-19T11:29:38.524Z,28.13
2018-01-19T11:30:38.542Z,28.13
2018-01-19T11:31:38.550Z,33.75
2018-01-19T11:32:38.571Z,33.75
2018-01-19T11:33:38.579Z,39.38
2018-01-19T11:34:38.591Z,39.38
2018-01-19T11:35:38.605Z,45.00
2018-01-19T11:36:38.618Z,45.00
2018-01-19T11:37:38.633Z,45.00
2018-01-19T11:38:38.646Z,45.00
2018-01-19T11:39:38.660Z,45.00
2018-01-19T11:40:38.674Z,45.00
2018-01-19T11:41:38.690Z,45.00
2018-01-19T11:42:38.698Z,45.00
2018-01-19T11:43:38.716Z,50.63
2018-01-19T11:44:38.726Z,56.25
2018-01-19T11:45:38.747Z,61.88
2018-01-19T11:46:38.756Z,61.88
2018-01-19T11:47:38.765Z,61.88
2018-01-19T11:48:38.779Z,67.50
2018-01-19T11:49:38.795Z,67.50
2018-01-19T11:50:38.811Z,78.75
2018-01-19T11:51:38.825Z,78.75
2018-01-19T11:52:38.846Z,78.75
2018-01-19T11:53:38.849Z,78.75
2018-01-19T11:54:38.862Z,84.38
2018-01-19T11:55:38.875Z,84.38
2018-01-19T11:56:38.902Z,90.00
2018-01-19T11:57:38.908Z,90.00
2018-01-19T11:58:38.914Z,84.38
2018-01-19T11:59:38.928Z,78.75
2018-01-19T12:00:38.941Z,84.38
2018-01-19T12:01:38.958Z,84.38
2018-01-19T12:02:38.966Z,78.75
2018-01-19T12:03:39.031Z,84.38
2018-01-19T12:04:38.994Z,90.00
2018-01-19T12:05:39.007Z,95.63
2018-01-19T12:06:39.023Z,95.63
2018-01-19T12:07:39.035Z,90.00
2018-01-19T12:08:39.045Z,84.38
2018-01-19T12:09:39.064Z,90.00
2018-01-19T12:10:39.074Z,84.38
2018-01-19T12:11:39.089Z,95.63
2018-01-19T12:12:39.105Z,90.00
2018-01-19T12:13:39.117Z,90.00
2018-01-19T12:14:39.128Z,95.63
2018-01-19T12:15:39.141Z,90.00
2018-01-19T12:16:39.158Z,95.63
2018-01-19T12:17:39.177Z,123.75
2018-01-19T12:18:39.186Z,118.13
2018-01-19T12:19:39.195Z,112.50
2018-01-19T12:20:39.211Z,101.25
2018-01-19T12:21:39.228Z,101.25
2018-01-19T12:22:39.239Z,106.88
2018-01-19T12:23:39.254Z,112.50
2018-01-19T12:24:39.265Z,118.13
2018-01-19T12:25:39.285Z,118.13
2018-01-19T12:26:39.292Z,135.00
2018-01-19T12:27:39.305Z,157.50
2018-01-19T12:28:39.321Z,163.13
2018-01-19T12:29:39.332Z,196.88
2018-01-19T12:30:39.347Z,225.00
2018-01-19T12:31:39.361Z,225.00
2018-01-19T12:32:39.373Z,219.38
2018-01-19T12:33:39.393Z,202.50
2018-01-19T12:34:39.402Z,196.88
2018-01-19T12:35:39.412Z,191.25
2018-01-19T12:36:39.438Z,191.25
2018-01-19T12:37:39.445Z,163.13
2018-01-19T12:38:39.454Z,168.75
2018-01-19T12:39:39.470Z,140.63
2018-01-19T12:40:39.481Z,135.00
2018-01-19T12:41:39.495Z,135.00
2018-01-19T12:42:39.509Z,135.00
2018-01-19T12:43:39.532Z,146.25
2018-01-19T12:44:39.538Z,163.13
2018-01-19T12:45:39.560Z,236.25
2018-01-19T12:46:39.563Z,258.75
2018-01-19T12:47:39.579Z,292.50
2018-01-19T12:48:39.599Z,292.50
2018-01-19T12:49:39.607Z,303.75
2018-01-19T12:50:39.620Z,309.38
2018-01-19T12:51:39.638Z,315.00
2018-01-19T12:52:39.652Z,309.38
2018-01-19T12:53:39.664Z,286.88
2018-01-19T12:54:39.683Z,241.88
2018-01-19T12:55:39.692Z,208.13
2018-01-19T12:56:39.708Z,196.88
2018-01-19T12:57:39.719Z,191.25
2018-01-19T12:58:39.917Z,174.38
2018-01-19T12:59:39.749Z,168.75
2018-01-19T13:00:39.792Z,151.88
2018-01-19T13:01:39.789Z,140.63
2018-01-19T13:02:39.795Z,106.88
2018-01-19T13:03:39.803Z,101.25
2018-01-19T13:04:39.838Z,84.38
2018-01-19T13:05:39.834Z,67.50